createdAt,value
2018-01-12T00:00:39.714Z,56.00
2018-01-12T00:01:39.609Z,53.30
2018-01-12T00:02:39.727Z,46.80
2018-01-12T00:03:39.616Z,57.20
2018-01-12T00:04:39.633Z,63.10
2018-01-12T00:05:39.635Z,62.20
2018-01-12T00:06:39.640Z,62.10
2018-01-12T00:07:39.660Z,58.10
2018-01-12T00:08:39.649Z,54.40
2018-01-12T00:09:39.672Z,46.60
2018-01-12T00:10:39.704Z,44.00
2018-01-12T00:11:39.683Z,41.10
2018-01-12T00:12:39.661Z,42.80
2018-01-12T00:13:39.699Z,40.30
2018-01-12T00:14:39.675Z,45.40
2018-01-12T00:15:39.713Z,47.40
2018-01-12T00:16:39.678Z,40.80
2018-01-12T00:17:39.725Z,43.30
2018-01-12T00:18:39.686Z,47.10
2018-01-12T00:19:39.741Z,43.00
2018-01-12T00:20:39.691Z,45.30
2018-01-12T00:21:39.704Z,40.00
2018-01-12T00:22:39.761Z,44.70
2018-01-12T00:23:39.709Z,49.50
2018-01-12T00:24:39.773Z,44.10
2018-01-12T00:25:39.715Z,44.00
2018-01-12T00:26:39.785Z,46.50
2018-01-12T00:27:39.725Z,48.00
2018-01-12T00:28:39.804Z,41.50
2018-01-12T00:29:39.734Z,45.40
2018-01-12T00:30:39.734Z,43.30
2018-01-12T00:31:39.743Z,40.00
2018-01-12T00:32:39.827Z,46.70
2018-01-12T00:33:39.748Z,39.90
2018-01-12T00:34:39.815Z,38.90
2018-01-12T00:35:39.764Z,47.40
2018-01-12T00:36:39.809Z,40.30
2018-01-12T00:37:39.772Z,43.30
2018-01-12T00:38:39.822Z,42.10
2018-01-12T00:39:39.779Z,44.90
2018-01-12T00:40:39.839Z,41.20
2018-01-12T00:41:39.787Z,38.30
2018-01-12T00:42:39.883Z,38.30
2018-01-12T00:43:39.794Z,38.70
2018-01-12T00:44:39.867Z,40.50
2018-01-12T00:45:39.803Z,38.60
2018-01-12T00:46:39.878Z,35.90
2018-01-12T00:47:39.810Z,36.20
2018-01-12T00:48:39.890Z,36.90
2018-01-12T00:49:39.821Z,39.00
2018-01-12T00:50:39.905Z,35.50
2018-01-12T00:51:39.829Z,33.80
2018-01-12T00:52:39.918Z,34.60
2018-01-12T00:53:39.846Z,35.10
2018-01-12T00:54:39.932Z,37.60
2018-01-12T00:55:39.858Z,38.00
2018-01-12T00:56:39.946Z,37.60
2018-01-12T00:57:39.857Z,38.90
2018-01-12T00:58:39.960Z,32.70
2018-01-12T00:59:40.163Z,32.20
2018-01-12T01:00:39.868Z,31.30
2018-01-12T01:01:39.979Z,35.60
2018-01-12T01:02:39.881Z,33.70
2018-01-12T01:03:39.992Z,34.20
2018-01-12T01:04:39.882Z,33.10
2018-01-12T01:05:39.904Z,33.00
2018-01-12T01:06:39.887Z,32.50
2018-01-12T01:07:39.915Z,31.70
2018-01-12T01:08:39.905Z,31.50
2018-01-12T01:09:39.913Z,34.20
2018-01-12T01:10:39.936Z,32.80
2018-01-12T01:11:39.910Z,34.40
2018-01-12T01:12:39.960Z,31.70
2018-01-12T01:13:39.921Z,32.20
2018-01-12T01:14:39.927Z,32.10
2018-01-12T01:15:39.931Z,31.70
2018-01-12T01:16:39.977Z,31.20
2018-01-12T01:17:39.940Z,29.00
2018-01-12T01:18:39.993Z,30.40
2018-01-12T01:19:39.948Z,29.70
2018-01-12T01:20:40.011Z,30.60
2018-01-12T01:21:39.954Z,31.50
2018-01-12T01:22:39.960Z,34.10
2018-01-12T01:23:40.025Z,33.40
2018-01-12T01:24:39.972Z,33.90
2018-01-12T01:25:40.038Z,30.20
2018-01-12T01:26:39.978Z,30.70
2018-01-12T01:27:40.054Z,35.10
2018-01-12T01:28:39.990Z,33.60
2018-01-12T01:29:39.990Z,33.10
2018-01-12T01:30:40.072Z,31.90
2018-01-12T01:31:40.000Z,31.70
2018-01-12T01:32:40.086Z,33.70
2018-01-12T01:33:40.007Z,31.10
2018-01-12T01:34:40.116Z,33.20
2018-01-12T01:35:40.017Z,35.90
2018-01-12T01:36:40.116Z,35.90
2018-01-12T01:37:40.030Z,33.30
2018-01-12T01:38:40.134Z,34.90
2018-01-12T01:39:40.033Z,33.50
2018-01-12T01:40:41.061Z,34.10
2018-01-12T01:41:40.047Z,37.80
2018-01-12T01:42:40.150Z,33.10
2018-01-12T01:43:40.044Z,32.00
2018-01-12T01:44:40.059Z,34.20
2018-01-12T01:45:40.070Z,35.20
2018-01-12T01:46:40.071Z,35.00
2018-01-12T01:47:40.105Z,34.90
2018-01-12T01:48:40.071Z,33.40
2018-01-12T01:49:40.114Z,34.20
2018-01-12T01:50:40.077Z,32.60
2018-01-12T01:51:40.116Z,35.40
2018-01-12T01:52:40.083Z,32.90
2018-01-12T01:53:40.146Z,32.60
2018-01-12T01:54:40.103Z,31.00
2018-01-12T01:55:40.138Z,34.40
2018-01-12T01:56:40.100Z,30.50
2018-01-12T01:57:40.161Z,34.00
2018-01-12T01:58:40.118Z,31.50
2018-01-12T01:59:40.117Z,30.60
2018-01-12T02:00:40.172Z,32.90
2018-01-12T02:01:40.121Z,33.00
2018-01-12T02:02:40.188Z,32.50
2018-01-12T02:03:40.133Z,36.10
2018-01-12T02:04:40.202Z,32.00
2018-01-12T02:05:40.142Z,33.90
2018-01-12T02:06:40.214Z,31.80
2018-01-12T02:07:40.146Z,34.20
2018-01-12T02:08:40.158Z,31.60
2018-01-12T02:09:40.158Z,33.20
2018-01-12T02:10:40.245Z,33.10
2018-01-12T02:11:40.171Z,32.50
2018-01-12T02:12:40.262Z,32.90
2018-01-12T02:13:40.176Z,32.90
2018-01-12T02:14:40.174Z,32.30
2018-01-12T02:15:40.179Z,31.60
2018-01-12T02:16:40.287Z,32.80
2018-01-12T02:17:40.188Z,33.60
2018-01-12T02:18:40.296Z,35.70
2018-01-12T02:19:40.203Z,32.50
2018-01-12T02:20:40.309Z,31.00
2018-01-12T02:21:40.207Z,33.70
2018-01-12T02:22:40.221Z,34.90
2018-01-12T02:23:40.216Z,34.80
2018-01-12T02:24:40.235Z,36.30
2018-01-12T02:25:40.222Z,36.20
2018-01-12T02:26:40.247Z,33.90
2018-01-12T02:27:40.232Z,34.30
2018-01-12T02:28:40.233Z,33.30
2018-01-12T02:29:40.263Z,34.20
2018-01-12T02:30:40.278Z,36.30
2018-01-12T02:31:40.251Z,33.20
2018-01-12T02:32:40.288Z,34.00
2018-01-12T02:33:40.259Z,35.20
2018-01-12T02:34:40.267Z,31.50
2018-01-12T02:35:40.260Z,34.90
2018-01-12T02:36:40.315Z,35.60
2018-01-12T02:37:40.272Z,31.10
2018-01-12T02:38:40.330Z,32.80
2018-01-12T02:39:40.284Z,30.40
2018-01-12T02:40:40.348Z,30.50
2018-01-12T02:41:40.286Z,34.00
2018-01-12T02:42:40.358Z,30.20
2018-01-12T02:43:40.294Z,29.80
2018-01-12T02:44:40.371Z,33.40
2018-01-12T02:45:40.302Z,32.60
2018-01-12T02:46:40.383Z,33.80
2018-01-12T02:47:40.310Z,35.40
2018-01-12T02:48:40.399Z,32.50
2018-01-12T02:49:40.315Z,35.20
2018-01-12T02:50:40.417Z,37.80
2018-01-12T02:51:40.351Z,35.60
2018-01-12T02:52:40.424Z,32.60
2018-01-12T02:53:40.340Z,34.00
2018-01-12T02:54:40.437Z,33.60
2018-01-12T02:55:40.355Z,33.90
2018-01-12T02:56:40.451Z,35.40
2018-01-12T02:57:40.351Z,37.90
2018-01-12T02:58:40.354Z,35.30
2018-01-12T02:59:40.473Z,34.40
2018-01-12T03:00:40.372Z,35.00
2018-01-12T03:01:40.390Z,31.00
2018-01-12T03:02:40.370Z,32.90
2018-01-12T03:03:40.404Z,32.50
2018-01-12T03:04:40.380Z,32.00
2018-01-12T03:05:40.416Z,33.20
2018-01-12T03:06:40.386Z,32.40
2018-01-12T03:07:40.430Z,31.80
2018-01-12T03:08:40.401Z,30.20
2018-01-12T03:09:40.442Z,32.30
2018-01-12T03:10:40.400Z,32.00
2018-01-12T03:11:40.455Z,33.30
2018-01-12T03:12:40.411Z,29.80
2018-01-12T03:13:40.415Z,32.50
2018-01-12T03:14:40.474Z,29.60
2018-01-12T03:15:40.420Z,30.50
2018-01-12T03:16:40.491Z,31.00
2018-01-12T03:17:40.434Z,29.50
2018-01-12T03:18:40.502Z,31.60
2018-01-12T03:19:40.436Z,29.70
2018-01-12T03:20:40.513Z,33.80
2018-01-12T03:21:40.448Z,28.40
2018-01-12T03:22:40.547Z,31.10
2018-01-12T03:23:40.454Z,28.70
2018-01-12T03:24:40.540Z,31.60
2018-01-12T03:25:40.464Z,31.90
2018-01-12T03:26:40.466Z,28.30
2018-01-12T03:27:40.472Z,30.40
2018-01-12T03:28:40.568Z,29.80
2018-01-12T03:29:40.478Z,31.00
2018-01-12T03:30:40.584Z,29.20
2018-01-12T03:31:40.487Z,31.50
2018-01-12T03:32:40.604Z,29.30
2018-01-12T03:33:40.494Z,29.30
2018-01-12T03:34:40.614Z,29.70
2018-01-12T03:35:40.498Z,31.40
2018-01-12T03:36:40.513Z,31.10
2018-01-12T03:37:40.508Z,29.00
2018-01-12T03:38:40.538Z,33.60
2018-01-12T03:39:40.516Z,30.40
2018-01-12T03:40:40.549Z,29.00
2018-01-12T03:41:40.528Z,29.60
2018-01-12T03:42:40.529Z,29.10
2018-01-12T03:43:40.569Z,28.90
2018-01-12T03:44:40.551Z,30.90
2018-01-12T03:45:40.581Z,31.30
2018-01-12T03:46:40.546Z,32.90
2018-01-12T03:47:41.620Z,31.00
2018-01-12T03:48:40.556Z,31.10
2018-01-12T03:49:40.610Z,30.10
2018-01-12T03:50:40.562Z,29.10
2018-01-12T03:51:40.624Z,29.80
2018-01-12T03:52:40.570Z,28.40
2018-01-12T03:53:40.644Z,27.80
2018-01-12T03:54:40.581Z,31.40
2018-01-12T03:55:40.653Z,29.60
2018-01-12T03:56:40.587Z,29.30
2018-01-12T03:57:40.668Z,29.90
2018-01-12T03:58:41.381Z,29.90
2018-01-12T03:59:40.690Z,29.80
2018-01-12T04:00:40.595Z,30.90
2018-01-12T04:01:40.692Z,30.10
2018-01-12T04:02:40.608Z,31.30
2018-01-12T04:03:40.610Z,30.30
2018-01-12T04:04:40.615Z,29.60
2018-01-12T04:05:40.720Z,30.70
2018-01-12T04:06:40.622Z,27.80
2018-01-12T04:07:40.729Z,30.80
2018-01-12T04:08:40.685Z,29.00
2018-01-12T04:09:40.753Z,30.30
2018-01-12T04:10:40.640Z,32.70
2018-01-12T04:11:40.641Z,34.80
2018-01-12T04:12:40.664Z,32.90
2018-01-12T04:13:40.651Z,31.30
2018-01-12T04:14:40.656Z,31.00
2018-01-12T04:15:40.663Z,31.20
2018-01-12T04:16:40.695Z,33.70
2018-01-12T04:17:40.666Z,32.30
2018-01-12T04:18:40.705Z,29.40
2018-01-12T04:19:40.674Z,33.10
2018-01-12T04:20:40.719Z,31.70
2018-01-12T04:21:40.684Z,32.60
2018-01-12T04:22:40.766Z,32.90
2018-01-12T04:23:40.691Z,33.60
2018-01-12T04:24:40.748Z,33.90
2018-01-12T04:25:40.707Z,34.20
2018-01-12T04:26:40.713Z,30.00
2018-01-12T04:27:40.768Z,32.10
2018-01-12T04:28:40.710Z,32.00
2018-01-12T04:29:40.780Z,30.80
2018-01-12T04:30:40.723Z,33.00
2018-01-12T04:31:40.717Z,30.50
2018-01-12T04:32:40.804Z,32.40
2018-01-12T04:33:40.739Z,26.90
2018-01-12T04:34:40.813Z,29.70
2018-01-12T04:35:40.741Z,29.50
2018-01-12T04:36:40.744Z,28.60
2018-01-12T04:37:40.838Z,29.70
2018-01-12T04:38:40.748Z,30.20
2018-01-12T04:39:40.849Z,30.60
2018-01-12T04:40:40.756Z,29.40
2018-01-12T04:41:40.758Z,30.40
2018-01-12T04:42:40.867Z,29.70
2018-01-12T04:43:40.770Z,27.80
2018-01-12T04:44:40.880Z,30.90
2018-01-12T04:45:40.772Z,30.60
2018-01-12T04:46:40.789Z,32.60
2018-01-12T04:47:40.782Z,29.90
2018-01-12T04:48:40.804Z,31.40
2018-01-12T04:49:40.789Z,29.80
2018-01-12T04:50:40.817Z,31.40
2018-01-12T04:51:40.801Z,31.20
2018-01-12T04:52:40.837Z,30.50
2018-01-12T04:53:40.805Z,30.00
2018-01-12T04:54:40.850Z,30.60
2018-01-12T04:55:40.814Z,30.30
2018-01-12T04:56:40.862Z,31.20
2018-01-12T04:57:40.820Z,29.20
2018-01-12T04:58:40.879Z,30.80
2018-01-12T04:59:40.830Z,29.40
2018-01-12T05:00:40.889Z,30.40
2018-01-12T05:01:40.837Z,30.80
2018-01-12T05:02:40.912Z,33.60
2018-01-12T05:03:40.845Z,28.90
2018-01-12T05:04:40.921Z,31.80
2018-01-12T05:05:40.853Z,31.80
2018-01-12T05:06:40.936Z,31.40
2018-01-12T05:07:40.869Z,34.30
2018-01-12T05:08:40.948Z,33.80
2018-01-12T05:09:40.867Z,30.10
2018-01-12T05:10:40.879Z,31.60
2018-01-12T05:11:40.969Z,32.20
2018-01-12T05:12:40.897Z,31.20
2018-01-12T05:13:40.981Z,35.30
2018-01-12T05:14:40.886Z,32.90
2018-01-12T05:15:40.996Z,31.90
2018-01-12T05:16:40.899Z,34.50
2018-01-12T05:17:41.010Z,31.60
2018-01-12T05:18:40.903Z,34.50
2018-01-12T05:19:41.022Z,31.80
2018-01-12T05:20:40.914Z,32.50
2018-01-12T05:21:40.935Z,31.60
2018-01-12T05:22:40.912Z,33.20
2018-01-12T05:23:40.944Z,31.10
2018-01-12T05:24:40.921Z,32.00
2018-01-12T05:25:40.926Z,30.30
2018-01-12T05:26:40.968Z,33.70
2018-01-12T05:27:40.936Z,33.50
2018-01-12T05:28:40.981Z,32.70
2018-01-12T05:29:40.944Z,31.50
2018-01-12T05:30:40.997Z,29.60
2018-01-12T05:31:40.952Z,32.80
2018-01-12T05:32:41.008Z,34.70
2018-01-12T05:33:40.969Z,31.30
2018-01-12T05:34:41.017Z,33.20
2018-01-12T05:35:40.961Z,36.00
2018-01-12T05:36:41.040Z,35.40
2018-01-12T05:37:40.969Z,37.40
2018-01-12T05:38:41.044Z,37.40
2018-01-12T05:39:40.982Z,35.30
2018-01-12T05:40:40.986Z,36.50
2018-01-12T05:41:41.070Z,33.90
2018-01-12T05:42:40.993Z,37.00
2018-01-12T05:43:41.078Z,37.10
2018-01-12T05:44:41.001Z,35.90
2018-01-12T05:45:41.108Z,39.20
2018-01-12T05:46:41.018Z,38.90
2018-01-12T05:47:41.110Z,41.20
2018-01-12T05:48:41.023Z,40.50
2018-01-12T05:49:41.122Z,41.70
2018-01-12T05:50:41.026Z,41.50
2018-01-12T05:51:41.136Z,44.30
2018-01-12T05:52:41.031Z,41.70
2018-01-12T05:53:41.059Z,43.30
2018-01-12T05:54:41.038Z,44.40
2018-01-12T05:55:41.043Z,43.40
2018-01-12T05:56:41.074Z,40.80
2018-01-12T05:57:41.073Z,43.80
2018-01-12T05:58:41.081Z,40.50
2018-01-12T05:59:41.061Z,41.30
2018-01-12T06:00:41.094Z,46.40
2018-01-12T06:01:41.063Z,42.60
2018-01-12T06:02:41.107Z,41.60
2018-01-12T06:03:41.079Z,43.10
2018-01-12T06:04:41.121Z,51.80
2018-01-12T06:05:41.078Z,51.00
2018-01-12T06:06:41.134Z,46.60
2018-01-12T06:07:41.090Z,45.00
2018-01-12T06:08:41.149Z,45.40
2018-01-12T06:09:41.091Z,46.00
2018-01-12T06:10:41.162Z,40.60
2018-01-12T06:11:41.103Z,44.70
2018-01-12T06:12:41.177Z,50.50
2018-01-12T06:13:41.105Z,50.40
2018-01-12T06:14:41.188Z,46.80
2018-01-12T06:15:41.131Z,48.20
2018-01-12T06:16:41.201Z,49.70
2018-01-12T06:17:41.124Z,53.20
2018-01-12T06:18:41.219Z,48.20
2018-01-12T06:19:41.131Z,51.40
2018-01-12T06:20:41.245Z,47.80
2018-01-12T06:21:41.147Z,50.90
2018-01-12T06:22:41.244Z,48.80
2018-01-12T06:23:41.149Z,45.20
2018-01-12T06:24:41.152Z,50.00
2018-01-12T06:25:41.266Z,50.10
2018-01-12T06:26:41.160Z,49.10
2018-01-12T06:27:41.175Z,47.80
2018-01-12T06:28:41.165Z,52.50
2018-01-12T06:29:41.185Z,54.50
2018-01-12T06:30:41.903Z,52.80
2018-01-12T06:31:41.204Z,48.80
2018-01-12T06:32:41.180Z,49.30
2018-01-12T06:33:41.243Z,51.10
2018-01-12T06:34:41.182Z,48.50
2018-01-12T06:35:41.230Z,47.30
2018-01-12T06:36:41.195Z,48.70
2018-01-12T06:37:41.243Z,53.00
2018-01-12T06:38:41.200Z,49.50
2018-01-12T06:39:41.207Z,50.50
2018-01-12T06:40:41.261Z,47.30
2018-01-12T06:41:41.221Z,47.40
2018-01-12T06:42:41.276Z,48.70
2018-01-12T06:43:41.237Z,50.80
2018-01-12T06:44:41.293Z,49.10
2018-01-12T06:45:41.228Z,47.20
2018-01-12T06:46:41.239Z,54.80
2018-01-12T06:47:41.311Z,52.10
2018-01-12T06:48:41.249Z,55.30
2018-01-12T06:49:41.331Z,53.10
2018-01-12T06:50:41.248Z,53.10
2018-01-12T06:51:41.338Z,61.30
2018-01-12T06:52:41.252Z,54.30
2018-01-12T06:53:41.352Z,62.30
2018-01-12T06:54:41.276Z,59.00
2018-01-12T06:55:41.366Z,56.00
2018-01-12T06:56:41.267Z,61.30
2018-01-12T06:57:41.381Z,59.40
2018-01-12T06:58:41.279Z,60.50
2018-01-12T06:59:41.404Z,66.20
2018-01-12T07:00:41.282Z,59.80
2018-01-12T07:01:41.304Z,61.80
2018-01-12T07:02:41.290Z,57.50
2018-01-12T07:03:41.317Z,59.90
2018-01-12T07:04:41.300Z,63.20
2018-01-12T07:05:41.331Z,63.90
2018-01-12T07:06:41.304Z,61.90
2018-01-12T07:07:41.345Z,68.80
2018-01-12T07:08:41.312Z,62.10
2018-01-12T07:09:41.356Z,62.90
2018-01-12T07:10:41.321Z,69.00
2018-01-12T07:11:41.328Z,62.20
2018-01-12T07:12:41.324Z,62.80
2018-01-12T07:13:41.387Z,64.10
2018-01-12T07:14:41.338Z,66.40
2018-01-12T07:15:41.399Z,61.80
2018-01-12T07:16:41.342Z,62.90
2018-01-12T07:17:41.346Z,63.40
2018-01-12T07:18:41.346Z,68.10
2018-01-12T07:19:41.439Z,74.10
2018-01-12T07:20:41.355Z,68.20
2018-01-12T07:21:41.439Z,72.10
2018-01-12T07:22:41.360Z,59.30
2018-01-12T07:23:41.369Z,69.90
2018-01-12T07:24:41.373Z,67.00
2018-01-12T07:25:41.378Z,70.90
2018-01-12T07:26:41.376Z,68.30
2018-01-12T07:27:41.381Z,75.30
2018-01-12T07:28:41.389Z,74.90
2018-01-12T07:29:41.387Z,71.10
2018-01-12T07:30:41.401Z,73.30
2018-01-12T07:31:41.426Z,86.90
2018-01-12T07:32:41.398Z,84.10
2018-01-12T07:33:41.444Z,85.10
2018-01-12T07:34:41.409Z,75.90
2018-01-12T07:35:41.432Z,82.40
2018-01-12T07:36:41.418Z,80.30
2018-01-12T07:37:41.447Z,81.30
2018-01-12T07:38:41.419Z,73.80
2018-01-12T07:39:47.500Z,73.10
2018-01-12T07:40:41.441Z,79.20
2018-01-12T07:41:41.472Z,72.20
2018-01-12T07:42:41.439Z,69.30
2018-01-12T07:43:41.519Z,69.20
2018-01-12T07:44:41.483Z,71.30
2018-01-12T07:45:42.525Z,89.70
2018-01-12T07:46:41.461Z,122.60
2018-01-12T07:47:41.515Z,127.70
2018-01-12T07:48:41.462Z,112.70
2018-01-12T07:49:41.524Z,117.80
2018-01-12T07:50:41.476Z,125.40
2018-01-12T07:51:41.549Z,118.10
2018-01-12T07:52:41.487Z,113.20
2018-01-12T07:53:41.555Z,114.60
2018-01-12T07:54:41.505Z,129.10
2018-01-12T07:55:41.575Z,121.80
2018-01-12T07:56:41.488Z,122.90
2018-01-12T07:57:42.505Z,128.30
2018-01-12T07:58:41.492Z,108.50
2018-01-12T07:59:41.607Z,124.90
2018-01-12T08:00:41.503Z,122.20
2018-01-12T08:01:41.615Z,140.70
2018-01-12T08:02:41.515Z,131.70
2018-01-12T08:03:41.628Z,134.80
2018-01-12T08:04:41.518Z,110.50
2018-01-12T08:05:41.539Z,145.90
2018-01-12T08:06:41.521Z,124.40
2018-01-12T08:07:41.556Z,122.90
2018-01-12T08:08:41.532Z,126.60
2018-01-12T08:09:41.564Z,132.40
2018-01-12T08:10:41.538Z,121.40
2018-01-12T08:11:42.610Z,118.10
2018-01-12T08:12:41.546Z,123.30
2018-01-12T08:13:41.591Z,101.60
2018-01-12T08:14:41.551Z,98.70
2018-01-12T08:15:41.611Z,92.00
2018-01-12T08:16:41.563Z,96.80
2018-01-12T08:17:41.616Z,93.10
2018-01-12T08:18:41.564Z,92.00
2018-01-12T08:19:41.626Z,90.20
2018-01-12T08:20:41.575Z,85.50
2018-01-12T08:21:41.645Z,85.00
2018-01-12T08:22:41.582Z,86.40
2018-01-12T08:23:42.682Z,87.00
2018-01-12T08:24:41.626Z,77.20
2018-01-12T08:25:42.695Z,83.60
2018-01-12T08:26:41.609Z,98.00
2018-01-12T08:27:41.692Z,108.10
2018-01-12T08:28:41.609Z,109.40
2018-01-12T08:29:42.721Z,104.90
2018-01-12T08:30:41.610Z,120.30
2018-01-12T08:31:42.634Z,105.90
2018-01-12T08:32:41.645Z,90.70
2018-01-12T08:33:41.727Z,90.70
2018-01-12T08:34:41.635Z,93.60
2018-01-12T08:35:41.733Z,95.00
2018-01-12T08:36:41.636Z,101.90
2018-01-12T08:37:41.645Z,107.90
2018-01-12T08:38:41.639Z,101.10
2018-01-12T08:39:41.678Z,99.20
2018-01-12T08:40:41.649Z,92.30
2018-01-12T08:41:41.681Z,97.80
2018-01-12T08:42:41.649Z,136.30
2018-01-12T08:43:42.715Z,136.80
2018-01-12T08:44:41.663Z,115.10
2018-01-12T08:45:41.709Z,121.80
2018-01-12T08:46:41.681Z,134.80
2018-01-12T08:47:41.715Z,149.30
2018-01-12T08:48:41.684Z,123.40
2018-01-12T08:49:41.686Z,106.90
2018-01-12T08:50:41.687Z,111.50
2018-01-12T08:51:41.704Z,117.20
2018-01-12T08:52:41.694Z,105.90
2018-01-12T08:53:42.739Z,105.60
2018-01-12T08:54:41.701Z,108.60
2018-01-12T08:55:41.746Z,110.60
2018-01-12T08:56:41.850Z,106.80
2018-01-12T08:57:42.768Z,100.70
2018-01-12T08:58:41.706Z,96.40
2018-01-12T08:59:41.760Z,94.60
2018-01-12T09:00:41.716Z,95.60
2018-01-12T09:01:41.771Z,92.00
2018-01-12T09:02:41.728Z,104.90
2018-01-12T09:03:41.782Z,84.70
2018-01-12T09:04:41.731Z,80.00
2018-01-12T09:05:41.793Z,88.10
2018-01-12T09:06:41.737Z,82.60
2018-01-12T09:07:41.810Z,76.90
2018-01-12T09:08:41.744Z,75.40
2018-01-12T09:09:41.822Z,79.70
2018-01-12T09:10:41.757Z,82.00
2018-01-12T09:11:41.837Z,90.10
2018-01-12T09:12:41.759Z,86.50
2018-01-12T09:13:41.850Z,90.70
2018-01-12T09:14:41.766Z,82.20
2018-01-12T09:15:42.886Z,76.00
2018-01-12T09:16:41.773Z,69.40
2018-01-12T09:17:41.882Z,78.60
2018-01-12T09:18:41.787Z,73.60
2018-01-12T09:19:41.895Z,79.60
2018-01-12T09:20:41.799Z,76.90
2018-01-12T09:21:41.906Z,72.90
2018-01-12T09:22:41.797Z,71.90
2018-01-12T09:23:41.819Z,69.40
2018-01-12T09:24:41.823Z,72.90
2018-01-12T09:25:41.830Z,68.80
2018-01-12T09:26:41.810Z,72.50
2018-01-12T09:27:41.843Z,65.50
2018-01-12T09:28:41.815Z,66.60
2018-01-12T09:29:41.857Z,62.20
2018-01-12T09:30:41.827Z,70.10
2018-01-12T09:31:41.870Z,70.60
2018-01-12T09:32:41.850Z,64.50
2018-01-12T09:33:41.885Z,73.60
2018-01-12T09:34:41.840Z,68.10
2018-01-12T09:35:41.899Z,58.90
2018-01-12T09:36:41.851Z,65.90
2018-01-12T09:37:41.908Z,64.20
2018-01-12T09:38:41.856Z,71.40
2018-01-12T09:39:41.922Z,61.30
2018-01-12T09:40:41.859Z,63.80
2018-01-12T09:41:41.934Z,69.50
2018-01-12T09:42:41.866Z,60.90
2018-01-12T09:43:41.949Z,58.90
2018-01-12T09:44:41.919Z,61.00
2018-01-12T09:45:41.964Z,61.90
2018-01-12T09:46:41.882Z,64.50
2018-01-12T09:47:41.979Z,65.60
2018-01-12T09:48:41.889Z,63.30
2018-01-12T09:49:41.994Z,63.70
2018-01-12T09:50:41.893Z,64.40
2018-01-12T09:51:42.007Z,64.90
2018-01-12T09:52:41.902Z,63.10
2018-01-12T09:53:42.020Z,58.80
2018-01-12T09:54:41.907Z,68.10
2018-01-12T09:55:42.954Z,63.60
2018-01-12T09:56:41.914Z,61.40
2018-01-12T09:57:41.943Z,62.80
2018-01-12T09:58:41.921Z,63.00
2018-01-12T09:59:41.956Z,65.50
2018-01-12T10:00:41.931Z,65.80
2018-01-12T10:01:41.973Z,62.90
2018-01-12T10:02:41.937Z,62.80
2018-01-12T10:03:44.030Z,69.10
2018-01-12T10:04:41.958Z,62.20
2018-01-12T10:05:42.026Z,63.70
2018-01-12T10:06:41.949Z,58.10
2018-01-12T10:07:43.040Z,58.80
2018-01-12T10:08:41.959Z,62.40
2018-01-12T10:09:42.031Z,60.40
2018-01-12T10:10:41.996Z,57.40
2018-01-12T10:11:46.955Z,60.60
2018-01-12T10:12:41.996Z,61.90
2018-01-12T10:13:42.058Z,65.90
2018-01-12T10:14:41.989Z,59.10
2018-01-12T10:15:42.087Z,61.00
2018-01-12T10:16:41.988Z,60.20
2018-01-12T10:17:46.998Z,57.00
2018-01-12T10:18:42.003Z,57.90
2018-01-12T10:19:43.012Z,59.20
2018-01-12T10:20:42.003Z,52.80
2018-01-12T10:21:42.108Z,53.80
2018-01-12T10:22:42.008Z,59.30
2018-01-12T10:23:42.120Z,55.00
2018-01-12T10:24:42.013Z,57.60
2018-01-12T10:25:48.997Z,58.80
2018-01-12T10:26:42.018Z,63.60
2018-01-12T10:27:44.095Z,60.30
2018-01-12T10:28:42.030Z,57.60
2018-01-12T10:29:42.057Z,57.60
2018-01-12T10:30:42.036Z,57.30
2018-01-12T10:31:42.078Z,52.60
2018-01-12T10:32:42.048Z,56.90
2018-01-12T10:33:44.135Z,55.40
2018-01-12T10:34:42.047Z,57.50
2018-01-12T10:35:42.101Z,54.20
2018-01-12T10:36:42.062Z,54.60
2018-01-12T10:37:42.114Z,56.10
2018-01-12T10:38:42.075Z,55.80
2018-01-12T10:39:42.125Z,53.10
2018-01-12T10:40:42.073Z,52.80
2018-01-12T10:41:42.139Z,56.60
2018-01-12T10:42:42.079Z,51.60
2018-01-12T10:43:43.186Z,51.60
2018-01-12T10:44:42.085Z,57.10
2018-01-12T10:45:43.190Z,56.10
2018-01-12T10:46:42.090Z,51.50
2018-01-12T10:47:42.179Z,55.00
2018-01-12T10:48:42.151Z,52.10
2018-01-12T10:49:43.222Z,52.80
2018-01-12T10:50:42.108Z,51.80
2018-01-12T10:51:42.210Z,50.20
2018-01-12T10:52:42.121Z,52.40
2018-01-12T10:53:42.218Z,55.90
2018-01-12T10:54:42.117Z,55.10
2018-01-12T10:55:42.236Z,50.80
2018-01-12T10:56:42.134Z,54.00
2018-01-12T10:57:42.146Z,51.70
2018-01-12T10:58:42.136Z,60.90
2018-01-12T10:59:42.164Z,54.00
2018-01-12T11:00:42.143Z,58.60
2018-01-12T11:01:42.171Z,56.10
2018-01-12T11:02:42.145Z,56.30
2018-01-12T11:03:42.188Z,60.30
2018-01-12T11:04:42.156Z,52.80
2018-01-12T11:05:43.225Z,56.40
2018-01-12T11:06:42.157Z,54.70
2018-01-12T11:07:42.210Z,53.60
2018-01-12T11:08:42.169Z,56.70
2018-01-12T11:09:42.231Z,54.70
2018-01-12T11:10:42.182Z,57.90
2018-01-12T11:11:42.239Z,52.80
2018-01-12T11:12:42.181Z,57.50
2018-01-12T11:13:42.256Z,57.60
2018-01-12T11:14:42.184Z,53.00
2018-01-12T11:15:42.268Z,53.40
2018-01-12T11:16:42.195Z,55.10
2018-01-12T11:17:42.280Z,55.40
2018-01-12T11:18:42.203Z,60.20
2018-01-12T11:19:42.293Z,57.00
2018-01-12T11:20:42.217Z,56.80
2018-01-12T11:21:43.238Z,54.00
2018-01-12T11:22:42.215Z,56.90
2018-01-12T11:23:42.320Z,56.50
2018-01-12T11:24:42.224Z,60.50
2018-01-12T11:25:42.335Z,57.90
2018-01-12T11:26:42.230Z,63.50
2018-01-12T11:27:42.250Z,57.70
2018-01-12T11:28:42.250Z,54.70
2018-01-12T11:29:42.264Z,55.70
2018-01-12T11:30:42.243Z,56.60
2018-01-12T11:31:42.276Z,57.00
2018-01-12T11:32:42.252Z,57.50
2018-01-12T11:33:42.290Z,54.60
2018-01-12T11:34:42.254Z,63.90
2018-01-12T11:35:43.328Z,56.30
2018-01-12T11:36:42.269Z,49.30
2018-01-12T11:37:42.318Z,51.90
2018-01-12T11:38:42.273Z,52.30
2018-01-12T11:39:43.355Z,52.10
2018-01-12T11:40:42.277Z,47.30
2018-01-12T11:41:42.285Z,47.60
2018-01-12T11:42:42.351Z,50.20
2018-01-12T11:43:42.295Z,46.60
2018-01-12T11:44:42.361Z,50.40
2018-01-12T11:45:42.300Z,49.30
2018-01-12T11:46:42.305Z,49.80
2018-01-12T11:47:42.310Z,51.30
2018-01-12T11:48:42.307Z,46.50
2018-01-12T11:49:42.397Z,47.50
2018-01-12T11:50:42.321Z,43.90
2018-01-12T11:51:42.410Z,43.10
2018-01-12T11:52:42.318Z,47.90
2018-01-12T11:53:43.346Z,48.90
2018-01-12T11:54:42.328Z,48.90
2018-01-12T11:55:42.443Z,48.20
2018-01-12T11:56:42.334Z,45.70
2018-01-12T11:57:43.377Z,44.60
2018-01-12T11:58:42.341Z,44.20
2018-01-12T11:59:42.363Z,43.90
2018-01-12T12:00:42.352Z,47.70
2018-01-12T12:01:42.378Z,44.10
2018-01-12T12:02:42.351Z,45.40
2018-01-12T12:03:42.405Z,45.70
2018-01-12T12:04:42.366Z,46.60
2018-01-12T12:05:42.404Z,44.70
2018-01-12T12:06:42.370Z,40.90
2018-01-12T12:07:42.478Z,40.50
2018-01-12T12:08:42.381Z,40.20
2018-01-12T12:09:42.394Z,42.20
2018-01-12T12:10:42.378Z,41.60
2018-01-12T12:11:42.404Z,41.10
2018-01-12T12:12:42.389Z,43.90
2018-01-12T12:13:42.432Z,46.20
2018-01-12T12:14:42.393Z,45.60
2018-01-12T12:15:42.433Z,51.10
2018-01-12T12:16:42.406Z,49.20
2018-01-12T12:17:43.478Z,45.20
2018-01-12T12:18:42.406Z,43.70
2018-01-12T12:19:42.462Z,42.30
2018-01-12T12:20:42.420Z,45.00
2018-01-12T12:21:43.508Z,42.20
2018-01-12T12:22:42.430Z,41.90
2018-01-12T12:23:42.486Z,40.10
2018-01-12T12:24:42.436Z,38.50
2018-01-12T12:25:42.506Z,40.90
2018-01-12T12:26:42.436Z,39.80
2018-01-12T12:27:42.513Z,42.20
2018-01-12T12:28:42.440Z,40.90
2018-01-12T12:29:42.530Z,41.80
2018-01-12T12:30:42.454Z,42.50
2018-01-12T12:31:44.486Z,41.70
2018-01-12T12:32:42.465Z,40.80
2018-01-12T12:33:42.557Z,43.70
2018-01-12T12:34:42.462Z,41.00
2018-01-12T12:35:42.571Z,40.10
2018-01-12T12:36:42.473Z,43.70
2018-01-12T12:37:42.593Z,44.30
2018-01-12T12:38:42.508Z,43.30
2018-01-12T12:39:43.518Z,46.30
2018-01-12T12:40:42.483Z,44.70
2018-01-12T12:41:42.510Z,44.90
2018-01-12T12:42:42.495Z,46.80
2018-01-12T12:43:42.522Z,47.80
2018-01-12T12:44:42.505Z,51.50
2018-01-12T12:45:44.598Z,45.50
2018-01-12T12:46:42.505Z,46.00
2018-01-12T12:47:42.589Z,42.50
2018-01-12T12:48:42.517Z,44.90
2018-01-12T12:49:43.659Z,45.30
2018-01-12T12:50:42.519Z,46.90